createdAt,value
2023-10-14T17:31:49.257Z,1.55
2023-10-14T17:34:20.821Z,1.63
2023-10-14T17:36:50.256Z,1.98
2023-10-14T17:39:23.055Z,1.50
2023-10-14T17:41:52.597Z,1.65
2023-10-14T17:44:21.889Z,1.50
2023-10-14T17:46:52.605Z,1.50
2023-10-14T17:49:23.482Z,2.10
2023-10-14T17:51:53.069Z,2.03
2023-10-14T17:54:22.401Z,2.13
2023-10-14T17:56:51.826Z,2.10
2023-10-14T17:59:21.188Z,1.70
2023-10-14T18:01:52.076Z,2.83
2023-10-14T18:04:21.501Z,3.00
2023-10-14T18:06:51.331Z,3.35
2023-10-14T18:09:21.356Z,4.20
2023-10-14T18:11:51.608Z,4.13
2023-10-14T18:14:21.545Z,3.65
2023-10-14T18:17:03.345Z,3.47
2023-10-14T18:19:33.668Z,5.20
2023-10-14T18:22:02.930Z,4.95
2023-10-14T18:24:34.362Z,4.88
2023-10-14T18:27:03.666Z,4.05
2023-10-14T18:29:33.530Z,3.53
2023-10-14T18:32:04.626Z,3.95
2023-10-14T18:34:34.135Z,4.32
2023-10-14T18:37:03.800Z,4.07
2023-10-14T18:39:34.301Z,4.82
2023-10-14T18:42:03.589Z,4.97
2023-10-14T18:47:45.202Z,4.10
2023-10-14T18:50:16.046Z,3.45
2023-10-14T18:52:45.558Z,3.58
2023-10-14T18:55:18.302Z,3.72
2023-10-14T18:57:49.447Z,4.07
2023-10-14T19:00:20.951Z,4.70
2023-10-14T19:02:54.709Z,4.30
2023-10-14T19:05:24.347Z,3.80
2023-10-14T19:07:53.775Z,3.72
2023-10-14T19:10:25.082Z,4.53
2023-10-14T19:12:56.011Z,3.90
2023-10-14T19:15:27.750Z,3.53
2023-10-14T19:17:58.706Z,3.47
2023-10-14T19:20:28.040Z,3.83
2023-10-14T19:23:15.624Z,3.50
2023-10-14T19:25:49.622Z,3.53
2023-10-14T19:28:22.721Z,3.13
2023-10-14T19:30:54.308Z,3.10
2023-10-14T19:33:26.406Z,3.05
2023-10-14T19:35:57.847Z,3.45
2023-10-14T19:38:28.078Z,3.60
2023-10-14T19:41:03.730Z,3.95
2023-10-14T19:43:35.460Z,3.47
2023-10-14T19:46:10.221Z,3.10
2023-10-14T19:48:44.669Z,3.38
2023-10-14T19:51:15.308Z,3.30
2023-10-14T19:53:44.922Z,3.30
2023-10-14T19:56:16.061Z,3.08
2023-10-14T19:58:45.652Z,3.75
2023-10-14T20:01:17.634Z,2.97
2023-10-14T20:03:49.567Z,3.67
2023-10-14T20:06:20.726Z,3.20
2023-10-14T20:08:50.978Z,3.28
2023-10-14T20:11:20.858Z,3.05
2023-10-14T20:13:50.423Z,3.60
2023-10-14T20:16:20.061Z,3.88
2023-10-14T20:18:50.857Z,3.53
2023-10-14T20:21:20.437Z,2.88
2023-10-14T20:23:50.774Z,4.10
2023-10-14T20:26:20.290Z,3.28
2023-10-14T20:28:49.830Z,3.33
2023-10-14T20:31:24.204Z,3.40
2023-10-14T20:33:57.097Z,3.05
2023-10-14T20:36:26.378Z,2.85
2023-10-14T20:38:55.914Z,3.42
2023-10-14T20:41:25.662Z,3.53
2023-10-14T20:43:56.766Z,3.00
2023-10-14T20:46:26.481Z,2.95
2023-10-14T20:48:57.387Z,3.08
2023-10-14T20:51:26.783Z,3.30
2023-10-14T20:53:57.184Z,3.30
2023-10-14T20:56:26.683Z,2.95
2023-10-14T20:58:56.021Z,3.72
2023-10-14T21:01:25.560Z,2.72
2023-10-14T21:03:56.903Z,3.63
2023-10-14T21:06:26.455Z,2.88
2023-10-14T21:08:55.885Z,3.30
2023-10-14T21:11:25.618Z,3.03
2023-10-14T21:13:56.003Z,3.50
2023-10-14T21:16:25.859Z,3.17
2023-10-14T21:18:58.679Z,3.53
2023-10-14T21:23:57.152Z,3.10
2023-10-14T21:26:27.255Z,2.80
2023-10-14T21:28:57.766Z,3.22
2023-10-14T21:31:27.189Z,2.97
2023-10-14T21:33:58.917Z,3.13
2023-10-14T21:36:28.291Z,3.50
2023-10-14T21:38:57.621Z,3.75
2023-10-14T21:41:27.057Z,3.30
2023-10-14T21:43:57.820Z,3.08
2023-10-14T21:47:45.331Z,3.22
2023-10-14T21:50:19.361Z,3.03
2023-10-14T21:52:50.688Z,3.50
2023-10-14T21:55:21.557Z,2.90
2023-10-14T21:57:51.957Z,3.08
2023-10-14T22:00:23.640Z,3.00
2023-10-14T22:02:58.008Z,3.20
2023-10-14T22:05:28.839Z,2.83
2023-10-14T22:07:59.329Z,3.08
2023-10-14T22:10:30.289Z,3.13
2023-10-14T22:13:00.017Z,3.00
2023-10-14T22:15:32.711Z,2.90
2023-10-14T22:20:41.530Z,2.20
2023-10-14T22:23:12.126Z,2.83
2023-10-14T22:25:46.861Z,2.80
2023-10-14T22:28:17.750Z,2.50
2023-10-14T22:30:47.369Z,3.60
2023-10-14T22:33:18.226Z,2.80
2023-10-14T22:35:47.850Z,3.22
2023-10-14T22:38:17.215Z,3.10
2023-10-14T22:40:46.711Z,2.90
2023-10-14T22:43:17.665Z,2.88
2023-10-14T22:45:48.851Z,3.15
2023-10-14T22:48:22.541Z,3.03
2023-10-14T22:50:57.025Z,3.97
2023-10-14T22:53:27.253Z,3.10
2023-10-14T22:55:56.939Z,2.90
2023-10-14T22:58:27.009Z,3.47
2023-10-14T23:00:56.511Z,3.05
2023-10-14T23:03:27.390Z,3.22
2023-10-14T23:05:56.835Z,3.03
2023-10-14T23:08:26.217Z,3.10
2023-10-14T23:10:55.615Z,3.13
2023-10-14T23:13:25.173Z,2.67
2023-10-14T23:15:54.508Z,2.90
2023-10-14T23:18:23.889Z,2.97
2023-10-14T23:20:54.663Z,3.78
2023-10-14T23:23:23.943Z,2.05
2023-10-14T23:25:53.422Z,3.45
2023-10-14T23:28:22.748Z,3.00
2023-10-14T23:30:52.279Z,2.90
2023-10-14T23:33:21.710Z,2.60
2023-10-14T23:35:51.100Z,2.40
2023-10-14T23:38:21.883Z,2.35
2023-10-14T23:40:51.305Z,1.98
2023-10-14T23:43:20.950Z,2.35
2023-10-14T23:45:52.102Z,2.50
2023-10-14T23:48:22.491Z,2.55
2023-10-14T23:50:51.940Z,2.28
2023-10-14T23:53:22.945Z,2.60
2023-10-14T23:55:55.570Z,1.88
